De Kalb, Missouri
Current Conditions -  °F | °C
As of 5:12 PM on Saturday 22 Nov 2014 (Local Time) from KSTJ Reporting Station
Overcast Overcast  
Wind Chill: 56°   Ceiling: 4000
Heat Index: 56°   Visibility: 10mi
Dew Point: 53°   Wind: 14mph
Humidity: 90%   Direction: 180°S
Pressure: 29.74"   Gusts: NA
Location:  39.59°N, 94.93°W
Report Text: KSTJ 222312Z AUTO 18012KT 10SM SCT024 OVC040 13/12 A2974 RMK AO2 T01330117
Loading
Personal Weather Stations






























Interactive Weather Map New forecast layout! Learn more

10-Day Weather Forecast

Advertisements
Track Severe Weather on mobile